Dades meteomassalio
Diari Summary for Diciembre 6, 2017 Units:  Metric    English   Both
« Previous Day
Next Day »
Diari Semanal Mensual Anual Personalitzat
  Maxima: Minima: Mijana:
Temperatura: -17.8 °C -21.8 °C -18.5 °C
Rosada: -17.8 °C -22.6 °C -20.4 °C
Humitat: Humidity % 57 % 78 %
Velocitat del vent: 0 km/h 0 km/h 1.8 km/h
Racha vent: 0 km/h - -
Vent:- - SSE
Pressio: 0 hPa 35082.3 hPa -
Pluja: 7.62 mm    
Historical Graphs
 
 
Tabular Data for Diciembre 6, 2017
Time Temperature Dew Point Pressure Wind Wind Speed Wind Gust Humidity Rainfall Rate (Hourly) solar Conditions
-17.8 °C -17.8 °C 0 hPa Calm     Humidity % 0 mm SolarRadiationWatts/m^2 W/m2 Conditions
00:04 -19.6 °C -20.7 °C 35207.6 hPa Calm     87 % 0 mm 0.0 W/m2 CLR
00:09 -19.6 °C -20.7 °C 35207.6 hPa Calm     87 % 0 mm 0.0 W/m2 CLR
00:14 -19.6 °C -20.6 °C 35207.6 hPa Calm     88 % 0 mm 0.0 W/m2 CLR
00:19 -19.9 °C -20.9 °C 35207.6 hPa Calm     88 % 0 mm 0.0 W/m2 CLR
00:24 -19.9 °C -20.9 °C 35197.5 hPa Calm     87 % 0 mm 0.0 W/m2 CLR
00:29 -19.9 °C -20.9 °C 35197.5 hPa Calm     87 % 0 mm 0.0 W/m2 CLR
00:34 -19.9 °C -20.9 °C 35197.5 hPa Calm     87 % 0 mm 0.0 W/m2 CLR
00:39 -19.9 °C -20.9 °C 35197.5 hPa Calm     87 % 0 mm 0.0 W/m2 CLR
00:40 -19.9 °C -20.9 °C 35197.5 hPa Calm     87 % 0 mm 0.0 W/m2 CLR
00:45 -19.9 °C -20.9 °C 35197.5 hPa Calm     88 % 0 mm 0.0 W/m2 CLR
00:50 -19.9 °C -20.9 °C 35197.5 hPa Calm     88 % 0 mm 0.0 W/m2 CLR
00:55 -19.9 °C -20.9 °C 35197.5 hPa Calm     88 % 0 mm 0.0 W/m2 CLR
01:00 -20.2 °C -21.3 °C 35197.5 hPa Calm     87 % 0 mm 0.0 W/m2 CLR
01:05 -20.2 °C -21.2 °C 35197.5 hPa Calm     88 % 0 mm 0.0 W/m2 CLR
01:10 -20.2 °C -21.2 °C 35197.5 hPa Calm     88 % 0 mm 0.0 W/m2 CLR
01:15 -20.2 °C -21.2 °C 35197.5 hPa Calm     88 % 0 mm 0.0 W/m2 CLR
01:20 -20.2 °C -21.1 °C 35197.5 hPa Calm     89 % 0 mm 0.0 W/m2 CLR
01:25 -20.2 °C -21.2 °C 35197.5 hPa Calm     88 % 0 mm 0.0 W/m2 CLR
01:30 -20.2 °C -21.1 °C 35197.5 hPa Calm     89 % 0 mm 0.0 W/m2 CLR
01:35 -20.2 °C -21.2 °C 35197.5 hPa Calm     88 % 0 mm 0.0 W/m2 CLR
01:40 -20.6 °C -21.4 °C 35197.5 hPa Calm     89 % 0 mm 0.0 W/m2 CLR
01:45 -20.6 °C -21.5 °C 35187.3 hPa Calm     88 % 0 mm 0.0 W/m2 CLR
01:50 -20.2 °C -21.1 °C 35187.3 hPa Calm     89 % 0 mm 0.0 W/m2 CLR
01:55 -20.6 °C -21.4 °C 35187.3 hPa Calm     89 % 0 mm 0.0 W/m2 CLR
01:57 -20.6 °C -21.5 °C 35187.3 hPa Calm     88 % 0 mm 0.0 W/m2 CLR
02:02 -20.6 °C -21.5 °C 35187.3 hPa Calm     88 % 0 mm 0.0 W/m2 CLR
02:07 -20.6 °C -21.5 °C 35187.3 hPa Calm     88 % 0 mm 0.0 W/m2 CLR
02:12 -20.6 °C -21.5 °C 35187.3 hPa Calm     88 % 0 mm 0.0 W/m2 CLR
02:17 -20.6 °C -21.4 °C 35187.3 hPa Calm     89 % 0 mm 0.0 W/m2 CLR
02:22 -20.6 °C -21.4 °C 35187.3 hPa Calm     89 % 0 mm 0.0 W/m2 CLR
02:27 -20.6 °C -21.4 °C 35187.3 hPa Calm     89 % 0 mm 0.0 W/m2 CLR
02:33 -20.6 °C -21.4 °C 35187.3 hPa Calm     89 % 0 mm 0.0 W/m2 CLR
02:37 -20.6 °C -21.4 °C 35187.3 hPa Calm     89 % 0 mm 0.0 W/m2 CLR
02:42 -20.6 °C -21.4 °C 35187.3 hPa Calm     89 % 0 mm 0.0 W/m2 CLR
02:48 -20.6 °C -21.4 °C 35187.3 hPa Calm     89 % 0 mm 0.0 W/m2 CLR
02:53 -20.6 °C -21.4 °C 35187.3 hPa Calm     89 % 0 mm 0.0 W/m2 CLR
02:58 -20.6 °C -21.3 °C 35187.3 hPa Calm     90 % 0 mm 0.0 W/m2 CLR
03:03 -20.6 °C -21.3 °C 35187.3 hPa Calm     90 % 0 mm 0.0 W/m2 CLR
03:08 -20.9 °C -21.7 °C 35187.3 hPa Calm     89 % 0 mm 0.0 W/m2 CLR
03:13 -20.6 °C -21.4 °C 35187.3 hPa Calm     89 % 0 mm 0.0 W/m2 CLR
03:18 -20.6 °C -21.4 °C 35187.3 hPa Calm     89 % 0 mm 0.0 W/m2 CLR
03:23 -20.6 °C -21.3 °C 35187.3 hPa Calm     90 % 0 mm 0.0 W/m2 CLR
03:28 -20.6 °C -21.4 °C 35187.3 hPa Calm     89 % 0 mm 0.0 W/m2 CLR
03:33 -20.9 °C -21.7 °C 35187.3 hPa Calm     89 % 0 mm 0.0 W/m2 CLR
03:38 -20.9 °C -21.7 °C 35187.3 hPa Calm     89 % 0 mm 0.0 W/m2 CLR
03:43 -20.9 °C -21.7 °C 35187.3 hPa Calm     89 % 0 mm 0.0 W/m2 CLR
03:48 -20.9 °C -21.6 °C 35187.3 hPa Calm     90 % 0 mm 0.0 W/m2 CLR
03:53 -20.9 °C -21.7 °C 35187.3 hPa Calm     89 % 0 mm 0.0 W/m2 CLR
04:03 -20.9 °C -21.7 °C 35187.3 hPa Calm     89 % 0 mm 0.0 W/m2 CLR
04:08 -20.9 °C -21.7 °C 35187.3 hPa Calm     89 % 0 mm 0.0 W/m2 CLR
04:13 -20.9 °C -21.6 °C 35187.3 hPa Calm     90 % 0 mm 0.0 W/m2 CLR
04:18 -20.9 °C -21.6 °C 35187.3 hPa Calm     90 % 0 mm 0.0 W/m2 CLR
04:23 -21.2 °C -22 °C 35187.3 hPa Calm     89 % 0 mm 0.0 W/m2 CLR
04:28 -21.2 °C -22 °C 35187.3 hPa Calm     89 % 0 mm 0.0 W/m2 CLR
04:33 -21.2 °C -22 °C 35173.8 hPa Calm     89 % 0 mm 0.0 W/m2 CLR
04:38 -21.2 °C -22 °C 35173.8 hPa Calm     89 % 0 mm 0.0 W/m2 CLR
04:43 -20.9 °C -21.7 °C 35173.8 hPa Calm     89 % 0 mm 0.0 W/m2 CLR
04:48 -21.2 °C -21.9 °C 35173.8 hPa Calm     90 % 0 mm 0.0 W/m2 CLR
04:53 -21.2 °C -21.9 °C 35173.8 hPa Calm     90 % 0 mm 0.0 W/m2 CLR
04:58 -20.9 °C -21.7 °C 35173.8 hPa Calm     89 % 0 mm 0.0 W/m2 CLR
05:03 -20.9 °C -21.7 °C 35173.8 hPa Calm     89 % 0 mm 0.0 W/m2 CLR
05:08 -20.9 °C -21.7 °C 35173.8 hPa Calm     89 % 0 mm 0.0 W/m2 CLR
05:13 -21.2 °C -21.9 °C 35173.8 hPa Calm     90 % 0 mm 0.0 W/m2 CLR
05:18 -21.2 °C -21.9 °C 35173.8 hPa Calm     90 % 0 mm 0.0 W/m2 CLR
05:23 -21.2 °C -21.9 °C 35173.8 hPa Calm     90 % 0 mm 0.0 W/m2 CLR
05:28 -21.2 °C -21.9 °C 35173.8 hPa Calm     90 % 0 mm 0.0 W/m2 CLR
05:33 -21.2 °C -21.9 °C 35187.3 hPa Calm     90 % 0 mm 0.0 W/m2 CLR
05:38 -21.2 °C -21.9 °C 35187.3 hPa Calm     90 % 0 mm 0.0 W/m2 CLR
05:43 -21.2 °C -22 °C 35173.8 hPa Calm     89 % 0 mm 0.0 W/m2 CLR
05:48 -21.2 °C -22 °C 35173.8 hPa Calm     89 % 0 mm 0.0 W/m2 CLR
05:53 -21.2 °C -21.9 °C 35173.8 hPa Calm     90 % 0 mm 0.0 W/m2 CLR
05:58 -21.2 °C -21.9 °C 35173.8 hPa Calm     90 % 0 mm 0.0 W/m2 CLR
06:03 -21.2 °C -21.9 °C 35173.8 hPa Calm     90 % 0 mm 0.0 W/m2 CLR
06:08 -21.2 °C -21.9 °C 35173.8 hPa Calm     90 % 0 mm 0.0 W/m2 CLR
06:13 -21.2 °C -21.9 °C 35173.8 hPa Calm     90 % 0 mm 0.0 W/m2 CLR
06:18 -21.2 °C -21.9 °C 35173.8 hPa Calm     90 % 0 mm 0.0 W/m2 CLR
06:23 -21.5 °C -22.3 °C 35173.8 hPa Calm     89 % 0 mm 0.0 W/m2 CLR
06:28 -21.5 °C -22.3 °C 35173.8 hPa Calm     89 % 0 mm 0.0 W/m2 CLR
06:29 -21.5 °C -22.3 °C 35173.8 hPa Calm     90 % 0 mm 0.0 W/m2 CLR
06:34 -21.5 °C -22.3 °C 35173.8 hPa Calm     89 % 0 mm 0.0 W/m2 CLR
06:44 -21.5 °C -22.3 °C 35173.8 hPa Calm     90 % 0 mm 0.0 W/m2 CLR
06:49 -21.5 °C -22.3 °C 35173.8 hPa Calm     90 % 0 mm 0.0 W/m2 CLR
06:54 -21.5 °C -22.3 °C 35173.8 hPa Calm     90 % 0 mm 0.0 W/m2 CLR
06:59 -21.8 °C -22.6 °C 35173.8 hPa Calm     90 % 0 mm 0.0 W/m2 CLR
07:04 -21.8 °C -22.6 °C 35173.8 hPa Calm     89 % 0 mm 0.0 W/m2 CLR
07:09 -21.8 °C -22.6 °C 35173.8 hPa Calm     90 % 0 mm 0.0 W/m2 CLR
07:14 -21.5 °C -22.3 °C 35187.3 hPa Calm     90 % 0 mm 0.0 W/m2 CLR
07:19 -21.5 °C -22.3 °C 35173.8 hPa Calm     90 % 0 mm 0.0 W/m2 CLR
07:24 -21.5 °C -22.3 °C 35173.8 hPa Calm     89 % 0 mm 0.0 W/m2 CLR
07:29 -21.8 °C -22.6 °C 35173.8 hPa Calm     90 % 0 mm 0.0 W/m2 CLR
07:34 -21.8 °C -22.6 °C 35173.8 hPa Calm     90 % 0 mm 0.0 W/m2 CLR
07:39 -21.8 °C -22.6 °C 35173.8 hPa Calm     90 % 0 mm 0.0 W/m2 CLR
07:44 -21.5 °C -22.3 °C 35173.8 hPa Calm     90 % 0 mm 0.0 W/m2 CLR
07:49 -21.5 °C -22.3 °C 35173.8 hPa Calm     90 % 0 mm 0.0 W/m2 CLR
07:54 -21.5 °C -22.3 °C 35173.8 hPa Calm     90 % 0 mm 0.0 W/m2 CLR
07:59 -21.5 °C -22.3 °C 35173.8 hPa Calm     90 % 0 mm 0.0 W/m2 CLR
08:04 -21.5 °C -22.3 °C 35173.8 hPa Calm     90 % 0 mm 0.0 W/m2 OVC
08:09 -21.5 °C -22.3 °C 35187.3 hPa Calm     90 % 0 mm 0.0 W/m2 OVC
08:14 -21.5 °C -22.2 °C 35187.3 hPa Calm     91 % 0 mm 5.0 W/m2 OVC
08:19 -21.5 °C -22.3 °C 35187.3 hPa Calm     90 % 0 mm 7.0 W/m2 BKN
08:24 -21.5 °C -22.3 °C 35187.3 hPa Calm     90 % 0 mm 11.0 W/m2 BKN
08:29 -21.8 °C -22.6 °C 35187.3 hPa Calm     90 % 0 mm 14.0 W/m2 BKN
08:34 -21.5 °C -22.3 °C 35187.3 hPa Calm     90 % 0 mm 16.0 W/m2 BKN
08:39 -21.5 °C -22.3 °C 35187.3 hPa Calm     90 % 0 mm 19.0 W/m2 BKN
08:44 -21.5 °C -22.3 °C 35187.3 hPa Calm     90 % 0 mm 30.0 W/m2 BKN
08:49 -21.5 °C -22.3 °C 35187.3 hPa Calm     90 % 0 mm 40.0 W/m2 BKN
08:54 -21.5 °C -22.3 °C 35187.3 hPa Calm     90 % 0 mm 49.0 W/m2 SCT
08:59 -21.5 °C -22.3 °C 35187.3 hPa Calm     90 % 0 mm 60.0 W/m2 SCT
09:04 -21.5 °C -22.3 °C 35187.3 hPa Calm     89 % 0 mm 69.0 W/m2 FEW
09:09 -21.5 °C -22.3 °C 35187.3 hPa Calm     90 % 0 mm 76.0 W/m2 FEW
09:14 -21.5 °C -22.3 °C 35187.3 hPa Calm     90 % 0 mm 90.0 W/m2 FEW
09:19 -21.5 °C -22.3 °C 35197.5 hPa Calm     89 % 0 mm 105.0 W/m2 CLR
09:24 -21.2 °C -22 °C 35197.5 hPa Calm     89 % 0 mm 118.0 W/m2 CLR
09:29 -20.9 °C -21.8 °C 35197.5 hPa Calm     88 % 0 mm 151.0 W/m2 CLR
09:34 -20.9 °C -21.8 °C 35197.5 hPa Calm     88 % 0 mm 172.0 W/m2 CLR
09:39 -20.9 °C -21.8 °C 35197.5 hPa Calm     88 % 0 mm 165.0 W/m2 CLR
09:44 -20.6 °C -21.6 °C 35197.5 hPa Calm     87 % 0 mm 169.0 W/m2 CLR
09:49 -20.6 °C -21.5 °C 35187.3 hPa Calm     88 % 0 mm 181.0 W/m2 CLR
09:54 -20.2 °C -21.3 °C 35197.5 hPa Calm     87 % 0 mm 127.0 W/m2 CLR
09:59 -20.2 °C -21.4 °C 35197.5 hPa Calm     85 % 0 mm 209.0 W/m2 CLR
10:04 -20.2 °C -21.4 °C 35197.5 hPa Calm     85 % 7.62 mm 95.0 W/m2 RA
10:09 -19.9 °C -21.3 °C 35197.5 hPa Calm     83 % 7.62 mm 230.0 W/m2 CLR
10:14 -19.9 °C -21.4 °C 35197.5 hPa Calm     82 % 7.62 mm 243.0 W/m2 CLR
10:19 -19.6 °C -21.2 °C 35197.5 hPa Calm     81 % 7.62 mm 253.0 W/m2 CLR
10:24 -19.6 °C -21.2 °C 35197.5 hPa Calm     81 % 7.62 mm 265.0 W/m2 CLR
10:34 -19 °C -20.6 °C 35207.6 hPa Calm     81 % 7.62 mm 290.0 W/m2 CLR
10:39 -19 °C -20.8 °C 35197.5 hPa Calm     79 % 7.62 mm 302.0 W/m2 CLR
10:44 -18.7 °C -20.4 °C 35197.5 hPa Calm     79 % 7.62 mm 311.0 W/m2 CLR
10:49 -18.4 °C -20.2 °C 35197.5 hPa Calm     79 % 7.62 mm 318.0 W/m2 CLR
10:54 -18.4 °C -20.2 °C 35197.5 hPa Calm     79 % 7.62 mm 327.0 W/m2 CLR
10:59 -18.1 °C -19.9 °C 35197.5 hPa Calm     78 % 7.62 mm 341.0 W/m2 CLR
11:04 -17.8 °C -19.8 °C 35197.5 hPa Calm     76 % 0 mm 348.0 W/m2 CLR
11:09 -17.8 °C -19.9 °C 35197.5 hPa Calm     75 % 0 mm 357.0 W/m2 CLR
11:14 -17.4 °C -19.8 °C 35197.5 hPa Calm     73 % 0 mm 360.0 W/m2 CLR
11:19 -17.2 °C -19.7 °C 35197.5 hPa Calm     72 % 0 mm 367.0 W/m2 CLR
11:24 -16.8 °C -19.5 °C 35197.5 hPa Calm     71 % 0 mm 378.0 W/m2 CLR
11:29 -16.6 °C -19.3 °C 35197.5 hPa Calm     70 % 0 mm 387.0 W/m2 CLR
11:34 -16.2 °C -19 °C 35197.5 hPa ENE 3.1 km/h   70 % 0 mm 394.0 W/m2 CLR
11:39 -15.9 °C -18.8 °C 35187.3 hPa Calm     69 % 0 mm 399.0 W/m2 CLR
11:44 -15.6 °C -18.6 °C 35187.3 hPa Calm     68 % 0 mm 406.0 W/m2 CLR
11:49 -15.3 °C -18.3 °C 35187.3 hPa Calm     68 % 0 mm 408.0 W/m2 CLR
11:54 -15.3 °C -18.4 °C 35187.3 hPa Calm     67 % 0 mm 413.0 W/m2 CLR
11:59 -15 °C -18.1 °C 35187.3 hPa Calm     67 % 0 mm 417.0 W/m2 CLR
12:04 -15 °C -18.2 °C 35173.8 hPa Calm     66 % 0 mm 422.0 W/m2 CLR
12:09 -14.7 °C -17.9 °C 35173.8 hPa Calm     66 % 0 mm 425.0 W/m2 CLR
12:14 -14.7 °C -18.1 °C 35173.8 hPa ESE 2.6 km/h 2.6 km/h 65 % 0 mm 429.0 W/m2 CLR
12:19 -14.7 °C -18.1 °C 35173.8 hPa East 3.1 km/h   65 % 0 mm 431.0 W/m2 CLR
12:24 -14.4 °C -17.9 °C 35173.8 hPa East 3.1 km/h 3.1 km/h 64 % 0 mm 434.0 W/m2 CLR
12:29 -14.4 °C -18 °C 35163.6 hPa SE 6 km/h 6 km/h 63 % 0 mm 434.0 W/m2 CLR
12:34 -14.4 °C -18 °C 35163.6 hPa East 3.1 km/h   63 % 0 mm 436.0 W/m2 CLR
12:39 -14.4 °C -18 °C 35163.6 hPa ESE 9 km/h 9 km/h 63 % 0 mm 438.0 W/m2 CLR
12:44 -14.4 °C -17.9 °C 35163.6 hPa East 10.3 km/h 10.3 km/h 64 % 0 mm 439.0 W/m2 CLR
12:49 -14.1 °C -17.7 °C 35150.1 hPa ENE 9 km/h 9 km/h 63 % 0 mm 439.0 W/m2 CLR
12:54 -14.1 °C -17.7 °C 35150.1 hPa ENE 9 km/h 9 km/h 63 % 0 mm 438.0 W/m2 CLR
12:55 -14.1 °C -17.7 °C 35150.1 hPa East 7.7 km/h 7.7 km/h 63 % 0 mm 439.0 W/m2 CLR
13:00 -14.1 °C -17.7 °C 35150.1 hPa East 6 km/h 6 km/h 63 % 0 mm 439.0 W/m2 CLR
13:05 -14.1 °C -17.8 °C 35150.1 hPa ENE 9 km/h   62 % 0 mm 438.0 W/m2 CLR
13:10 -14.1 °C -17.8 °C 35150.1 hPa ENE 9 km/h 9 km/h 62 % 0 mm 436.0 W/m2 CLR
13:15 -13.8 °C -17.6 °C 35150.1 hPa East 10.3 km/h 10.3 km/h 62 % 0 mm 436.0 W/m2 CLR
13:20 -13.8 °C -17.7 °C 35139.9 hPa ENE 9 km/h 9 km/h 61 % 0 mm 429.0 W/m2 CLR
13:25 -13.8 °C -17.7 °C 35139.9 hPa Calm     61 % 0 mm 431.0 W/m2 CLR
13:30 -13.8 °C -17.7 °C 35139.9 hPa Calm     61 % 0 mm 427.0 W/m2 CLR
13:35 -13.8 °C -17.7 °C 35139.9 hPa East 9 km/h 9 km/h 61 % 0 mm 424.0 W/m2 CLR
13:40 -13.4 °C -17.5 °C 35139.9 hPa East 10.3 km/h 10.3 km/h 60 % 0 mm 420.0 W/m2 CLR
13:45 -13.4 °C -17.4 °C 35139.9 hPa ENE 3.1 km/h   61 % 0 mm 417.0 W/m2 CLR
13:50 -13.4 °C -17.5 °C 35139.9 hPa ENE 9 km/h 9 km/h 60 % 0 mm 411.0 W/m2 CLR
13:55 -13.8 °C -17.8 °C 35139.9 hPa East 3.1 km/h 3.1 km/h 60 % 0 mm 408.0 W/m2 CLR
14:00 -13.4 °C -17.6 °C 35139.9 hPa East 6 km/h 6 km/h 59 % 0 mm 401.0 W/m2 CLR
14:05 -13.4 °C -17.6 °C 35129.8 hPa ENE 9 km/h 9 km/h 59 % 0 mm 397.0 W/m2 CLR
14:10 -13.4 °C -17.6 °C 35129.8 hPa East 9 km/h 9 km/h 59 % 0 mm 394.0 W/m2 CLR
14:11 -13.4 °C -17.6 °C 35129.8 hPa East 9 km/h 9 km/h 59 % 0 mm 394.0 W/m2 CLR
14:16 -13.4 °C -17.6 °C 35129.8 hPa ENE 9 km/h 9 km/h 59 % 0 mm 387.0 W/m2 CLR
14:21 -13.4 °C -17.6 °C 35116.2 hPa East 2.6 km/h 2.6 km/h 59 % 0 mm 381.0 W/m2 CLR
14:26 -13.2 °C -17.3 °C 35116.2 hPa ENE 9 km/h 9 km/h 59 % 0 mm 374.0 W/m2 CLR
14:31 -13.2 °C -17.4 °C 35116.2 hPa East 9 km/h 9 km/h 58 % 0 mm 367.0 W/m2 CLR
14:36 -13.2 °C -17.4 °C 35116.2 hPa ENE 9 km/h 9 km/h 58 % 0 mm 360.0 W/m2 CLR
14:41 -13.2 °C -17.4 °C 35106 hPa East 5.1 km/h 5.1 km/h 58 % 0 mm 353.0 W/m2 CLR
14:46 -13.2 °C -17.4 °C 35106 hPa Calm     58 % 0 mm 345.0 W/m2 CLR
14:51 -13.2 °C -17.4 °C 35106 hPa East 6 km/h 6 km/h 58 % 0 mm 336.0 W/m2 CLR
14:56 -13.2 °C -17.4 °C 35106 hPa Calm     58 % 0 mm 327.0 W/m2 CLR
15:01 -13.2 °C -17.4 °C 35106 hPa Calm     58 % 0 mm 316.0 W/m2 CLR
15:06 -12.8 °C -17.2 °C 35106 hPa East 6 km/h 6 km/h 58 % 0 mm 306.0 W/m2 CLR
15:11 -12.8 °C -17.3 °C 35106 hPa ENE 6 km/h 6 km/h 57 % 0 mm 297.0 W/m2 CLR
15:16 -12.8 °C -17.2 °C 35106 hPa Calm     58 % 0 mm 287.0 W/m2 CLR
15:21 -12.8 °C -17.2 °C 35106 hPa East 9 km/h 9 km/h 58 % 0 mm 276.0 W/m2 CLR
15:26 -12.8 °C -17.2 °C 35106 hPa Calm     58 % 0 mm 264.0 W/m2 CLR
15:31 -12.8 °C -17.2 °C 35106 hPa ENE 12.9 km/h 12.9 km/h 58 % 0 mm 251.0 W/m2 CLR
15:36 -12.8 °C -17.2 °C 35095.9 hPa ENE 12.9 km/h 12.9 km/h 58 % 0 mm 239.0 W/m2 CLR
15:41 -12.8 °C -17.2 °C 35095.9 hPa ENE 3.1 km/h   58 % 0 mm 223.0 W/m2 CLR
15:46 -12.8 °C -17.2 °C 35095.9 hPa ENE 9 km/h 9 km/h 58 % 0 mm 211.0 W/m2 CLR
15:51 -12.8 °C -17.2 °C 35095.9 hPa NE 9 km/h 9 km/h 58 % 0 mm 199.0 W/m2 CLR
15:56 -13.2 °C -17.4 °C 35095.9 hPa Calm     58 % 0 mm 185.0 W/m2 CLR
16:01 -13.2 °C -17.4 °C 35095.9 hPa Calm     58 % 0 mm 169.0 W/m2 CLR
16:06 -13.2 °C -17.4 °C 35095.9 hPa ENE 10.3 km/h 10.3 km/h 58 % 0 mm 156.0 W/m2 CLR
16:11 -13.2 °C -17.4 °C 35095.9 hPa ENE 9 km/h 9 km/h 58 % 0 mm 142.0 W/m2 CLR
16:16 -13.4 °C -17.6 °C 35095.9 hPa Calm     59 % 0 mm 130.0 W/m2 CLR
16:21 -13.4 °C -17.6 °C 35095.9 hPa Calm     59 % 0 mm 116.0 W/m2 CLR
16:26 -13.4 °C -17.6 °C 35095.9 hPa Calm   0.3 km/h 59 % 0 mm 102.0 W/m2 CLR
16:31 -13.8 °C -18.1 °C 35095.9 hPa Calm     58 % 0 mm 90.0 W/m2 CLR
16:36 -13.8 °C -17.9 °C 35095.9 hPa Calm     59 % 0 mm 77.0 W/m2 FEW
16:41 -14.1 °C -18.2 °C 35095.9 hPa Calm     59 % 0 mm 65.0 W/m2 SCT
16:46 -14.4 °C -18.5 °C 35095.9 hPa Calm     59 % 0 mm 51.0 W/m2 SCT
16:51 -14.4 °C -18.5 °C 35095.9 hPa Calm     59 % 0 mm 42.0 W/m2 SCT
16:56 -14.7 °C -18.7 °C 35095.9 hPa Calm     60 % 0 mm 33.0 W/m2 BKN
17:01 -15 °C -18.9 °C 35095.9 hPa Calm     60 % 0 mm 25.0 W/m2 BKN
17:06 -15.3 °C -19.3 °C 35095.9 hPa Calm     60 % 0 mm 18.0 W/m2 BKN
17:07 -15.3 °C -19.3 °C 35082.3 hPa Calm     60 % 0 mm 16.0 W/m2 BKN
17:12 -15.3 °C -19.3 °C 35095.9 hPa Calm     60 % 0 mm 14.0 W/m2 BKN
17:17 -15.6 °C -19.4 °C 35095.9 hPa Calm     61 % 0 mm 12.0 W/m2 BKN
17:22 -15.9 °C -19.6 °C 35095.9 hPa Calm     62 % 0 mm 9.0 W/m2 BKN
17:27 -16.2 °C -19.9 °C 35095.9 hPa Calm     62 % 0 mm 7.0 W/m2 BKN
17:32 -16.2 °C -19.8 °C 35095.9 hPa Calm     63 % 0 mm 5.0 W/m2 OVC
17:42 -16.6 °C -19.9 °C 35095.9 hPa Calm     64 % 0 mm 0.0 W/m2 CLR
17:47 -16.6 °C -19.9 °C 35095.9 hPa Calm     64 % 0 mm 0.0 W/m2 CLR
17:52 -16.2 °C -19.6 °C 35095.9 hPa Calm     65 % 0 mm 0.0 W/m2 CLR
17:57 -16.2 °C -19.4 °C 35095.9 hPa Calm     66 % 0 mm 0.0 W/m2 CLR
18:02 -16.2 °C -19.4 °C 35095.9 hPa Calm     66 % 0 mm 0.0 W/m2 CLR
18:07 -16.6 °C -19.8 °C 35095.9 hPa Calm     65 % 0 mm 0.0 W/m2 CLR
18:12 -16.6 °C -19.8 °C 35095.9 hPa Calm     65 % 0 mm 0.0 W/m2 CLR
18:17 -16.6 °C -19.6 °C 35095.9 hPa Calm     67 % 0 mm 0.0 W/m2 CLR
18:22 -16.8 °C -19.7 °C 35095.9 hPa Calm     69 % 0 mm 0.0 W/m2 CLR
18:27 -16.8 °C -19.6 °C 35095.9 hPa Calm     70 % 0 mm 0.0 W/m2 CLR
18:32 -17.2 °C -19.9 °C 35106 hPa Calm     70 % 0 mm 0.0 W/m2 CLR
18:37 -17.2 °C -19.8 °C 35095.9 hPa Calm     71 % 0 mm 0.0 W/m2 CLR
18:42 -17.4 °C -19.9 °C 35095.9 hPa Calm     72 % 0 mm 0.0 W/m2 CLR
18:47 -17.4 °C -19.8 °C 35106 hPa Calm     73 % 0 mm 0.0 W/m2 CLR
18:58 -17.4 °C -19.8 °C 35106 hPa Calm     74 % 0 mm 0.0 W/m2 CLR
19:03 -17.8 °C -19.9 °C 35106 hPa Calm     75 % 0 mm 0.0 W/m2 CLR
19:08 -17.8 °C -19.8 °C 35106 hPa Calm     76 % 0 mm 0.0 W/m2 CLR
19:13 -18.1 °C -20.2 °C 35106 hPa Calm     76 % 0 mm 0.0 W/m2 CLR
19:18 -18.4 °C -20.4 °C 35106 hPa Calm     76 % 0 mm 0.0 W/m2 CLR
19:23 -18.7 °C -20.7 °C 35106 hPa Calm     77 % 0 mm 0.0 W/m2 CLR
19:28 -18.7 °C -20.7 °C 35106 hPa Calm     77 % 0 mm 0.0 W/m2 CLR
19:33 -18.7 °C -20.7 °C 35106 hPa Calm     77 % 0 mm 0.0 W/m2 CLR
19:38 -19 °C -20.9 °C 35106 hPa Calm     78 % 0 mm 0.0 W/m2 CLR
19:43 -18.7 °C -20.6 °C 35106 hPa WSW 9 km/h 9 km/h 78 % 0 mm 0.0 W/m2 CLR
19:48 -19 °C -20.8 °C 35106 hPa WSW 11.9 km/h 11.9 km/h 79 % 0 mm 0.0 W/m2 CLR
19:53 -19 °C -20.8 °C 35106 hPa Calm     79 % 0 mm 0.0 W/m2 CLR
19:58 -19 °C -20.8 °C 35106 hPa Calm     79 % 0 mm 0.0 W/m2 CLR
20:03 -19 °C -20.8 °C 35106 hPa Calm     79 % 0 mm 0.0 W/m2 CLR
20:08 -19.3 °C -21.1 °C 35106 hPa Calm     79 % 0 mm 0.0 W/m2 CLR
20:13 -19.3 °C -20.9 °C 35116.2 hPa Calm     80 % 0 mm 0.0 W/m2 CLR
20:18 -19.3 °C -20.9 °C 35116.2 hPa Calm     80 % 0 mm 0.0 W/m2 CLR
20:23 -19.3 °C -20.9 °C 35106 hPa WSW 3.1 km/h 3.1 km/h 80 % 0 mm 0.0 W/m2 CLR
20:28 -19.6 °C -21.3 °C 35116.2 hPa WSW 6 km/h 6 km/h 80 % 0 mm 0.0 W/m2 CLR
20:33 -19.6 °C -21.2 °C 35116.2 hPa Calm     81 % 0 mm 0.0 W/m2 CLR
20:38 -19.6 °C -21.2 °C 35116.2 hPa Calm     81 % 0 mm 0.0 W/m2 CLR
20:43 -19.6 °C -21.2 °C 35116.2 hPa Calm     81 % 0 mm 0.0 W/m2 CLR
20:48 -19.6 °C -21.2 °C 35116.2 hPa Calm     81 % 0 mm 0.0 W/m2 CLR
20:53 -19.6 °C -21.1 °C 35116.2 hPa Calm     82 % 0 mm 0.0 W/m2 CLR
20:58 -19.6 °C -21.1 °C 35116.2 hPa Calm     82 % 0 mm 0.0 W/m2 CLR
21:03 -19.6 °C -21.1 °C 35116.2 hPa Calm     82 % 0 mm 0.0 W/m2 CLR
21:08 -19.6 °C -21.1 °C 35116.2 hPa WSW 9 km/h 9 km/h 82 % 0 mm 0.0 W/m2 CLR
21:13 -19.9 °C -21.3 °C 35116.2 hPa WSW 12.9 km/h 12.9 km/h 83 % 0 mm 0.0 W/m2 CLR
21:18 -19.9 °C -21.2 °C 35116.2 hPa West 11.9 km/h 11.9 km/h 84 % 0 mm 0.0 W/m2 CLR
21:23 -19.9 °C -21.2 °C 35116.2 hPa Calm     84 % 0 mm 0.0 W/m2 CLR
21:28 -19.9 °C -21.3 °C 35116.2 hPa Calm     83 % 0 mm 0.0 W/m2 CLR
21:33 -19.9 °C -21.3 °C 35116.2 hPa West 7.7 km/h 7.7 km/h 83 % 0 mm 0.0 W/m2 CLR
21:38 -19.9 °C -21.3 °C 35116.2 hPa WSW 17.9 km/h 17.9 km/h 83 % 0 mm 0.0 W/m2 CLR
21:43 -20.2 °C -21.5 °C 35116.2 hPa WSW 9 km/h 9 km/h 84 % 0 mm 0.0 W/m2 CLR
21:48 -20.2 °C -21.5 °C 35116.2 hPa Calm     84 % 0 mm 0.0 W/m2 CLR
21:53 -20.2 °C -21.5 °C 35116.2 hPa Calm     84 % 0 mm 0.0 W/m2 CLR
21:59 -20.2 °C -21.5 °C 35116.2 hPa Calm     84 % 0 mm 0.0 W/m2 CLR
22:04 -20.2 °C -21.5 °C 35116.2 hPa WSW 3.1 km/h 3.1 km/h 84 % 0 mm 0.0 W/m2 CLR
22:09 -20.2 °C -21.5 °C 35116.2 hPa WSW 3.1 km/h 3.1 km/h 84 % 0 mm 0.0 W/m2 CLR
22:14 -20.2 °C -21.4 °C 35116.2 hPa WSW 9 km/h 9 km/h 85 % 0 mm 0.0 W/m2 CLR
22:19 -20.2 °C -21.4 °C 35116.2 hPa Calm     85 % 0 mm 0.0 W/m2 CLR
22:24 -20.2 °C -21.4 °C 35116.2 hPa Calm     85 % 0 mm 0.0 W/m2 CLR
22:29 -20.2 °C -21.4 °C 35116.2 hPa WSW 2.6 km/h 2.6 km/h 85 % 0 mm 0.0 W/m2 CLR
22:34 -20.2 °C -21.4 °C 35116.2 hPa Calm     85 % 0 mm 0.0 W/m2 CLR
22:39 -20.2 °C -21.4 °C 35116.2 hPa West 9 km/h 9 km/h 85 % 0 mm 0.0 W/m2 CLR
22:44 -20.2 °C -21.3 °C 35116.2 hPa WSW 6 km/h 6 km/h 86 % 0 mm 0.0 W/m2 CLR
22:49 -20.2 °C -21.3 °C 35129.8 hPa Calm     86 % 0 mm 0.0 W/m2 CLR
22:54 -20.2 °C -21.3 °C 35129.8 hPa West 9 km/h 9 km/h 86 % 0 mm 0.0 W/m2 CLR
22:59 -20.2 °C -21.3 °C 35129.8 hPa West 9 km/h 9 km/h 87 % 0 mm 0.0 W/m2 CLR
23:04 -20.2 °C -21.3 °C 35129.8 hPa West 9 km/h 9 km/h 87 % 0 mm 0.0 W/m2 CLR
23:09 -20.2 °C -21.3 °C 35116.2 hPa Calm     86 % 0 mm 0.0 W/m2 CLR
23:14 -20.6 °C -21.7 °C 35129.8 hPa Calm     86 % 0 mm 0.0 W/m2 CLR
23:19 -20.6 °C -21.7 °C 35116.2 hPa Calm     86 % 0 mm 0.0 W/m2 CLR
23:24 -20.6 °C -21.7 °C 35116.2 hPa West 9 km/h 9 km/h 86 % 0 mm 0.0 W/m2 CLR
23:29 -20.6 °C -21.6 °C 35116.2 hPa West 12.9 km/h 12.9 km/h 87 % 0 mm 0.0 W/m2 CLR
23:34 -20.6 °C -21.6 °C 35129.8 hPa West 10.3 km/h 10.3 km/h 87 % 0 mm 0.0 W/m2 CLR
23:39 -20.9 °C -21.9 °C 35129.8 hPa West 6 km/h 6 km/h 87 % 0 mm 0.0 W/m2 CLR
23:44 -20.9 °C -21.9 °C 35129.8 hPa Calm     87 % 0 mm 0.0 W/m2 CLR
23:49 -20.9 °C -21.9 °C 35129.8 hPa West 6 km/h 6 km/h 87 % 0 mm 0.0 W/m2 CLR
23:54 -20.9 °C -21.9 °C 35129.8 hPa Calm     87 % 0 mm 0.0 W/m2 CLR
23:59 -20.9 °C -21.9 °C 35129.8 hPa WSW 9 km/h 9 km/h 87 % 0 mm 0.0 W/m2 CLR
Lo Temps de Massalio
Compliments of Weather Underground - 1.25 mb